createdAt,value
2017-11-13T00:00:05.320Z,1004.99
2017-11-13T00:01:05.316Z,1005.02
2017-11-13T00:02:05.298Z,1005.03
2017-11-13T00:03:05.296Z,1005.04
2017-11-13T00:04:05.282Z,1005.13
2017-11-13T00:05:05.274Z,1005.13
2017-11-13T00:06:05.266Z,1005.11
2017-11-13T00:07:05.256Z,1005.11
2017-11-13T00:08:05.249Z,1005.18
2017-11-13T00:09:05.241Z,1005.15
2017-11-13T00:10:05.238Z,1005.15
2017-11-13T00:11:05.228Z,1005.12
2017-11-13T00:12:05.224Z,1005.11
2017-11-13T00:13:05.213Z,1005.13
2017-11-13T00:14:05.214Z,1005.08
2017-11-13T00:15:05.197Z,1005.11
2017-11-13T00:16:05.190Z,1005.09
2017-11-13T00:17:05.179Z,1005.15
2017-11-13T00:18:05.169Z,1005.17
2017-11-13T00:19:05.159Z,1005.22
2017-11-13T00:20:05.156Z,1005.20
2017-11-13T00:21:05.141Z,1005.22
2017-11-13T00:22:05.141Z,1005.21
2017-11-13T00:23:05.129Z,1005.19
2017-11-13T00:24:05.121Z,1005.23
2017-11-13T00:25:05.113Z,1005.26
2017-11-13T00:26:05.101Z,1005.26
2017-11-13T00:27:05.092Z,1005.30
2017-11-13T00:28:05.081Z,1005.35
2017-11-13T00:29:05.074Z,1005.40
2017-11-13T00:30:05.066Z,1005.37
2017-11-13T00:31:05.064Z,1005.32
2017-11-13T00:32:05.050Z,1005.32
2017-11-13T00:33:05.040Z,1005.34
2017-11-13T00:34:05.035Z,1005.33
2017-11-13T00:35:05.027Z,1005.35
2017-11-13T00:36:05.018Z,1005.42
2017-11-13T00:37:05.011Z,1005.42
2017-11-13T00:38:05.002Z,1005.43
2017-11-13T00:39:04.994Z,1005.45
2017-11-13T00:40:04.984Z,1005.44
2017-11-13T00:41:04.976Z,1005.40
2017-11-13T00:42:04.967Z,1005.42
2017-11-13T00:43:04.955Z,1005.39
2017-11-13T00:44:04.946Z,1005.41
2017-11-13T00:45:04.936Z,1005.47
2017-11-13T00:46:04.932Z,1005.47
2017-11-13T00:47:04.919Z,1005.48
2017-11-13T00:48:04.911Z,1005.53
2017-11-13T00:49:04.902Z,1005.53
2017-11-13T00:50:04.897Z,1005.54
2017-11-13T00:51:04.888Z,1005.58
2017-11-13T00:52:04.881Z,1005.60
2017-11-13T00:53:04.871Z,1005.57
2017-11-13T00:54:04.861Z,1005.64
2017-11-13T00:55:04.853Z,1005.59
2017-11-13T00:56:04.844Z,1005.61
2017-11-13T00:57:04.836Z,1005.60
2017-11-13T00:58:04.822Z,1005.64
2017-11-13T00:59:04.812Z,1005.65
2017-11-13T01:00:04.805Z,1005.65
2017-11-13T01:01:04.796Z,1005.70
2017-11-13T01:02:04.786Z,1005.69
2017-11-13T01:03:04.778Z,1005.73
2017-11-13T01:04:04.768Z,1005.80
2017-11-13T01:05:04.761Z,1005.80
2017-11-13T01:06:04.758Z,1005.83
2017-11-13T01:07:04.746Z,1005.86
2017-11-13T01:08:04.738Z,1005.92
2017-11-13T01:09:04.729Z,1005.85
2017-11-13T01:10:04.721Z,1005.85
2017-11-13T01:11:04.718Z,1005.89
2017-11-13T01:12:04.703Z,1005.91
2017-11-13T01:13:04.693Z,1005.92
2017-11-13T01:14:04.680Z,1005.87
2017-11-13T01:15:04.672Z,1005.94
2017-11-13T01:16:04.663Z,1006.00
2017-11-13T01:17:04.660Z,1006.00
2017-11-13T01:18:04.647Z,1005.97
2017-11-13T01:19:04.637Z,1005.98
2017-11-13T01:20:04.627Z,1006.00
2017-11-13T01:21:04.618Z,1005.97
2017-11-13T01:22:04.616Z,1006.03
2017-11-13T01:23:04.605Z,1006.02
2017-11-13T01:24:04.596Z,1005.96
2017-11-13T01:25:04.588Z,1005.95
2017-11-13T01:26:04.574Z,1005.96
2017-11-13T01:27:04.566Z,1006.01
2017-11-13T01:28:04.557Z,1006.05
2017-11-13T01:29:04.548Z,1006.05
2017-11-13T01:30:04.543Z,1006.01
2017-11-13T01:31:04.535Z,1006.04
2017-11-13T01:32:04.525Z,1006.02
2017-11-13T01:33:04.520Z,1006.04
2017-11-13T01:34:04.508Z,1006.04
2017-11-13T01:35:04.498Z,1006.07
2017-11-13T01:36:04.490Z,1006.08
2017-11-13T01:37:04.481Z,1006.12
2017-11-13T01:38:04.467Z,1006.16
2017-11-13T01:39:04.459Z,1006.21
2017-11-13T01:40:04.450Z,1006.20
2017-11-13T01:41:04.450Z,1006.16
2017-11-13T01:42:04.432Z,1006.24
2017-11-13T01:43:04.422Z,1006.22
2017-11-13T01:44:04.412Z,1006.27
2017-11-13T01:45:04.408Z,1006.26
2017-11-13T01:46:04.400Z,1006.30
2017-11-13T01:47:04.392Z,1006.28
2017-11-13T01:48:04.380Z,1006.28
2017-11-13T01:49:04.381Z,1006.28
2017-11-13T01:50:04.364Z,1006.31
2017-11-13T01:51:04.353Z,1006.34
2017-11-13T01:52:04.345Z,1006.28
2017-11-13T01:53:04.338Z,1006.35
2017-11-13T01:54:04.323Z,1006.33
2017-11-13T01:55:04.312Z,1006.36
2017-11-13T01:56:04.306Z,1006.37
2017-11-13T01:57:04.296Z,1006.39
2017-11-13T01:58:04.285Z,1006.42
2017-11-13T01:59:04.276Z,1006.39
2017-11-13T02:00:04.268Z,1006.38
2017-11-13T02:01:04.265Z,1006.38
2017-11-13T02:02:04.255Z,1006.37
2017-11-13T02:03:04.245Z,1006.38
2017-11-13T02:04:04.237Z,1006.43
2017-11-13T02:05:04.230Z,1006.42
2017-11-13T02:06:04.219Z,1006.45
2017-11-13T02:07:04.209Z,1006.38
2017-11-13T02:08:04.200Z,1006.42
2017-11-13T02:09:04.191Z,1006.40
2017-11-13T02:10:04.177Z,1006.45
2017-11-13T02:11:04.168Z,1006.42
2017-11-13T02:12:04.160Z,1006.55
2017-11-13T02:13:04.151Z,1006.47
2017-11-13T02:14:04.140Z,1006.51
2017-11-13T02:15:04.132Z,1006.50
2017-11-13T02:16:04.124Z,1006.51
2017-11-13T02:17:04.114Z,1006.61
2017-11-13T02:18:04.110Z,1006.61
2017-11-13T02:19:04.100Z,1006.60
2017-11-13T02:20:04.093Z,1006.70
2017-11-13T02:21:04.083Z,1006.71
2017-11-13T02:22:04.074Z,1006.68
2017-11-13T02:23:04.063Z,1006.69
2017-11-13T02:24:04.053Z,1006.69
2017-11-13T02:25:04.045Z,1006.67
2017-11-13T02:26:04.032Z,1006.62
2017-11-13T02:27:04.028Z,1006.59
2017-11-13T02:28:04.015Z,1006.61
2017-11-13T02:29:04.005Z,1006.62
2017-11-13T02:30:03.998Z,1006.73
2017-11-13T02:31:03.993Z,1006.68
2017-11-13T02:32:03.985Z,1006.72
2017-11-13T02:33:03.971Z,1006.76
2017-11-13T02:34:03.962Z,1006.81
2017-11-13T02:35:03.955Z,1006.89
2017-11-13T02:36:03.945Z,1006.93
2017-11-13T02:37:03.936Z,1007.00
2017-11-13T02:38:03.926Z,1006.98
2017-11-13T02:39:03.917Z,1006.91
2017-11-13T02:40:03.909Z,1006.93
2017-11-13T02:41:03.899Z,1006.96
2017-11-13T02:42:03.888Z,1007.01
2017-11-13T02:43:03.877Z,1006.99
2017-11-13T02:44:03.868Z,1006.97
2017-11-13T02:45:03.859Z,1007.01
2017-11-13T02:46:03.859Z,1007.03
2017-11-13T02:47:03.843Z,1007.04
2017-11-13T02:48:03.831Z,1007.11
2017-11-13T02:49:03.824Z,1007.19
2017-11-13T02:50:03.820Z,1007.19
2017-11-13T02:51:03.809Z,1007.21
2017-11-13T02:52:03.807Z,1007.25
2017-11-13T02:53:03.793Z,1007.19
2017-11-13T02:54:03.783Z,1007.16
2017-11-13T02:55:03.775Z,1007.19
2017-11-13T02:56:03.767Z,1007.20
2017-11-13T02:57:03.758Z,1007.14
2017-11-13T02:58:03.756Z,1007.14
2017-11-13T02:59:03.734Z,1007.19
2017-11-13T03:00:03.728Z,1007.23
2017-11-13T03:01:03.719Z,1007.31
2017-11-13T03:02:03.710Z,1007.25
2017-11-13T03:03:03.703Z,1007.29
2017-11-13T03:04:03.691Z,1007.33
2017-11-13T03:05:03.683Z,1007.35
2017-11-13T03:06:03.679Z,1007.32
2017-11-13T03:07:03.672Z,1007.42
2017-11-13T03:08:03.662Z,1007.36
2017-11-13T03:09:03.654Z,1007.39
2017-11-13T03:10:03.644Z,1007.43
2017-11-13T03:11:03.634Z,1007.41
2017-11-13T03:12:03.625Z,1007.41
2017-11-13T03:13:03.616Z,1007.42
2017-11-13T03:14:03.606Z,1007.39
2017-11-13T03:15:03.595Z,1007.42
2017-11-13T03:16:03.586Z,1007.44
2017-11-13T03:17:03.577Z,1007.38
2017-11-13T03:18:03.569Z,1007.43
2017-11-13T03:19:03.558Z,1007.44
2017-11-13T03:20:03.550Z,1007.39
2017-11-13T03:21:03.542Z,1007.41
2017-11-13T03:22:03.538Z,1007.43
2017-11-13T03:23:03.528Z,1007.44
2017-11-13T03:24:03.519Z,1007.49
2017-11-13T03:25:03.510Z,1007.48
2017-11-13T03:26:03.504Z,1007.49
2017-11-13T03:27:03.493Z,1007.54
2017-11-13T03:28:03.485Z,1007.50
2017-11-13T03:29:03.476Z,1007.45
2017-11-13T03:30:03.465Z,1007.49
2017-11-13T03:31:03.466Z,1007.55
2017-11-13T03:32:03.446Z,1007.61
2017-11-13T03:33:03.442Z,1007.62
2017-11-13T03:34:03.433Z,1007.58
2017-11-13T03:35:03.425Z,1007.61
2017-11-13T03:36:03.415Z,1007.58
2017-11-13T03:37:03.406Z,1007.64
2017-11-13T03:38:03.394Z,1007.61
2017-11-13T03:39:03.385Z,1007.64
2017-11-13T03:40:03.377Z,1007.59
2017-11-13T03:41:03.368Z,1007.66
2017-11-13T03:42:03.360Z,1007.66
2017-11-13T03:43:03.364Z,1007.70
2017-11-13T03:44:03.341Z,1007.70
2017-11-13T03:45:03.336Z,1007.69
2017-11-13T03:46:03.328Z,1007.73
2017-11-13T03:47:03.320Z,1007.82
2017-11-13T03:48:03.311Z,1007.84
2017-11-13T03:49:03.305Z,1007.86
2017-11-13T03:50:03.300Z,1007.85
2017-11-13T03:51:03.289Z,1007.86
2017-11-13T03:52:03.277Z,1007.83
2017-11-13T03:53:03.268Z,1007.87
2017-11-13T03:54:03.256Z,1007.82
2017-11-13T03:55:03.247Z,1007.94
2017-11-13T03:56:03.239Z,1007.89
2017-11-13T03:57:03.230Z,1007.96
2017-11-13T03:58:03.221Z,1007.94
2017-11-13T03:59:03.213Z,1007.97
2017-11-13T04:00:03.204Z,1007.98
2017-11-13T04:01:03.197Z,1008.07
2017-11-13T04:02:03.192Z,1008.11
2017-11-13T04:03:03.187Z,1008.10
2017-11-13T04:04:03.174Z,1008.08
2017-11-13T04:05:03.165Z,1008.09
2017-11-13T04:06:03.157Z,1008.12
2017-11-13T04:07:03.150Z,1008.13
2017-11-13T04:08:03.142Z,1008.20
2017-11-13T04:09:03.133Z,1008.19
2017-11-13T04:10:03.121Z,1008.18
2017-11-13T04:11:03.109Z,1008.27
2017-11-13T04:12:03.104Z,1008.29
2017-11-13T04:13:03.094Z,1008.21
2017-11-13T04:14:03.087Z,1008.25
2017-11-13T04:15:03.078Z,1008.28
2017-11-13T04:16:03.069Z,1008.26
2017-11-13T04:17:03.179Z,1008.27
2017-11-13T04:18:03.061Z,1008.27
2017-11-13T04:19:03.050Z,1008.30
2017-11-13T04:20:03.041Z,1008.39
2017-11-13T04:21:03.034Z,1008.36
2017-11-13T04:22:03.025Z,1008.35
2017-11-13T04:23:03.016Z,1008.42
2017-11-13T04:24:03.009Z,1008.39
2017-11-13T04:25:03.019Z,1008.40
2017-11-13T04:26:03.008Z,1008.39
2017-11-13T04:27:02.981Z,1008.48
2017-11-13T04:28:02.972Z,1008.41
2017-11-13T04:29:02.964Z,1008.51
2017-11-13T04:30:02.956Z,1008.48
2017-11-13T04:31:02.947Z,1008.47
2017-11-13T04:32:02.941Z,1008.51
2017-11-13T04:33:02.932Z,1008.54
2017-11-13T04:34:02.931Z,1008.50
2017-11-13T04:35:02.919Z,1008.52
2017-11-13T04:36:02.910Z,1008.47
2017-11-13T04:37:02.903Z,1008.51
2017-11-13T04:38:02.897Z,1008.48
2017-11-13T04:39:02.882Z,1008.53
2017-11-13T04:40:02.874Z,1008.53
2017-11-13T04:41:02.866Z,1008.53
2017-11-13T04:42:02.863Z,1008.54
2017-11-13T04:43:02.863Z,1008.53
2017-11-13T04:44:02.845Z,1008.57
2017-11-13T04:45:02.836Z,1008.56
2017-11-13T04:46:02.829Z,1008.56
2017-11-13T04:47:02.821Z,1008.54
2017-11-13T04:48:02.813Z,1008.53
2017-11-13T04:49:02.806Z,1008.64
2017-11-13T04:50:02.793Z,1008.67
2017-11-13T04:51:02.784Z,1008.67
2017-11-13T04:52:02.782Z,1008.73
2017-11-13T04:53:02.767Z,1008.72
2017-11-13T04:54:02.759Z,1008.74
2017-11-13T04:55:02.750Z,1008.73
2017-11-13T04:56:02.744Z,1008.81
2017-11-13T04:57:02.736Z,1008.77
2017-11-13T04:58:02.733Z,1008.80
2017-11-13T04:59:02.723Z,1008.75
2017-11-13T05:00:02.714Z,1008.78
2017-11-13T05:01:02.708Z,1008.86
2017-11-13T05:02:02.699Z,1008.87
2017-11-13T05:03:02.690Z,1008.91
2017-11-13T05:04:02.684Z,1008.91
2017-11-13T05:05:02.674Z,1008.99
2017-11-13T05:06:02.663Z,1009.00
2017-11-13T05:07:02.655Z,1009.02
2017-11-13T05:08:02.647Z,1009.06
2017-11-13T05:09:02.645Z,1009.08
2017-11-13T05:10:02.631Z,1009.06
2017-11-13T05:11:02.624Z,1009.05
2017-11-13T05:12:02.615Z,1009.08
2017-11-13T05:13:02.613Z,1009.10
2017-11-13T05:14:02.602Z,1009.06
2017-11-13T05:15:02.595Z,1009.12
2017-11-13T05:16:02.587Z,1009.08
2017-11-13T05:17:02.582Z,1009.14
2017-11-13T05:18:02.574Z,1009.11
2017-11-13T05:19:02.570Z,1009.16
2017-11-13T05:20:02.556Z,1009.09
2017-11-13T05:21:02.548Z,1009.08
2017-11-13T05:22:02.537Z,1009.15
2017-11-13T05:23:02.534Z,1009.15
2017-11-13T05:24:02.519Z,1009.10
2017-11-13T05:25:02.517Z,1009.12
2017-11-13T05:26:02.503Z,1009.14
2017-11-13T05:27:02.496Z,1009.19
2017-11-13T05:28:02.486Z,1009.19
2017-11-13T05:29:02.481Z,1009.23
2017-11-13T05:30:02.480Z,1009.21
2017-11-13T05:31:02.467Z,1009.27
2017-11-13T05:32:02.461Z,1009.28
2017-11-13T05:33:02.461Z,1009.33
2017-11-13T05:34:02.445Z,1009.31
2017-11-13T05:35:02.436Z,1009.33
2017-11-13T05:36:02.427Z,1009.34
2017-11-13T05:37:02.422Z,1009.37
2017-11-13T05:38:02.410Z,1009.40
2017-11-13T05:39:02.407Z,1009.51
2017-11-13T05:40:02.393Z,1009.40
2017-11-13T05:41:02.395Z,1009.43
2017-11-13T05:42:02.389Z,1009.52
2017-11-13T05:43:02.375Z,1009.48
2017-11-13T05:44:02.365Z,1009.54
2017-11-13T05:45:02.357Z,1009.52
2017-11-13T05:46:02.345Z,1009.58
2017-11-13T05:47:02.337Z,1009.63
2017-11-13T05:48:02.328Z,1009.67
2017-11-13T05:49:02.320Z,1009.67
2017-11-13T05:50:02.312Z,1009.69
2017-11-13T05:51:02.303Z,1009.65
2017-11-13T05:52:02.296Z,1009.66
2017-11-13T05:53:02.290Z,1009.66
2017-11-13T05:54:02.285Z,1009.67
2017-11-13T05:55:02.276Z,1009.70
2017-11-13T05:56:02.270Z,1009.76
2017-11-13T05:57:02.260Z,1009.74
2017-11-13T05:58:02.255Z,1009.77
2017-11-13T05:59:02.245Z,1009.76
2017-11-13T06:00:02.243Z,1009.73
2017-11-13T06:01:02.230Z,1009.75
2017-11-13T06:02:02.225Z,1009.78
2017-11-13T06:03:02.210Z,1009.75
2017-11-13T06:04:02.202Z,1009.75
2017-11-13T06:05:02.198Z,1009.74
2017-11-13T06:06:02.187Z,1009.77
2017-11-13T06:07:02.178Z,1009.77
2017-11-13T06:08:02.174Z,1009.84
2017-11-13T06:09:02.164Z,1009.84
2017-11-13T06:10:02.159Z,1009.88
2017-11-13T06:11:02.151Z,1009.84
2017-11-13T06:12:02.144Z,1009.89
2017-11-13T06:13:02.140Z,1009.88
2017-11-13T06:14:02.128Z,1009.86
2017-11-13T06:15:02.118Z,1009.91
2017-11-13T06:16:02.113Z,1009.90
2017-11-13T06:17:02.109Z,1009.92
2017-11-13T06:18:02.106Z,1009.93
2017-11-13T06:19:02.084Z,1009.98
2017-11-13T06:20:02.077Z,1009.99
2017-11-13T06:21:02.070Z,1010.00
2017-11-13T06:22:02.062Z,1009.97
2017-11-13T06:23:02.052Z,1009.96
2017-11-13T06:24:02.045Z,1009.90
2017-11-13T06:25:02.040Z,1009.98
2017-11-13T06:26:02.034Z,1009.99
2017-11-13T06:27:02.029Z,1009.94
2017-11-13T06:28:02.018Z,1009.96
2017-11-13T06:29:02.011Z,1010.03
2017-11-13T06:30:02.004Z,1010.06
2017-11-13T06:31:01.995Z,1010.09
2017-11-13T06:32:02.001Z,1010.08
2017-11-13T06:33:01.981Z,1010.06
2017-11-13T06:34:01.970Z,1010.15
2017-11-13T06:35:01.961Z,1010.12
2017-11-13T06:36:01.954Z,1010.20
2017-11-13T06:37:01.946Z,1010.18
2017-11-13T06:38:01.938Z,1010.26
2017-11-13T06:39:01.931Z,1010.21
2017-11-13T06:40:01.922Z,1010.25
2017-11-13T06:41:01.915Z,1010.24
2017-11-13T06:42:01.912Z,1010.26
2017-11-13T06:43:01.901Z,1010.33
2017-11-13T06:44:01.895Z,1010.39
2017-11-13T06:45:01.887Z,1010.43
2017-11-13T06:46:01.876Z,1010.43
2017-11-13T06:47:01.867Z,1010.45
2017-11-13T06:48:01.859Z,1010.46
2017-11-13T06:49:01.850Z,1010.51
2017-11-13T06:50:01.852Z,1010.53
2017-11-13T06:51:01.838Z,1010.49
2017-11-13T06:52:01.832Z,1010.53
2017-11-13T06:53:01.821Z,1010.56
2017-11-13T06:54:01.815Z,1010.56
2017-11-13T06:55:01.805Z,1010.59
2017-11-13T06:56:01.799Z,1010.65
2017-11-13T06:57:01.791Z,1010.63
2017-11-13T06:58:01.780Z,1010.58
2017-11-13T06:59:01.768Z,1010.66
2017-11-13T07:00:01.763Z,1010.60
2017-11-13T07:01:01.754Z,1010.63
2017-11-13T07:02:01.747Z,1010.64
2017-11-13T07:03:01.743Z,1010.69
2017-11-13T07:04:01.733Z,1010.70
2017-11-13T07:05:01.720Z,1010.71
2017-11-13T07:06:01.717Z,1010.74
2017-11-13T07:07:01.709Z,1010.78
2017-11-13T07:08:01.701Z,1010.70
2017-11-13T07:09:01.693Z,1010.75
2017-11-13T07:10:01.684Z,1010.83
2017-11-13T07:11:01.676Z,1010.83
2017-11-13T07:12:01.669Z,1010.85
2017-11-13T07:13:01.664Z,1010.89
2017-11-13T07:14:01.649Z,1010.86
2017-11-13T07:15:01.641Z,1010.91
2017-11-13T07:16:01.652Z,1010.96
2017-11-13T07:17:01.628Z,1010.98
2017-11-13T07:18:01.615Z,1011.00
2017-11-13T07:19:01.606Z,1011.02
2017-11-13T07:20:01.600Z,1011.03
2017-11-13T07:21:01.590Z,1011.13
2017-11-13T07:22:01.587Z,1011.11
2017-11-13T07:23:01.581Z,1011.07
2017-11-13T07:24:01.570Z,1011.13
2017-11-13T07:25:01.569Z,1011.15
2017-11-13T07:26:01.556Z,1011.12
2017-11-13T07:27:01.546Z,1011.14
2017-11-13T07:28:01.539Z,1011.11
2017-11-13T07:29:01.532Z,1011.20
2017-11-13T07:30:01.518Z,1011.25
2017-11-13T07:31:01.512Z,1011.25
2017-11-13T07:32:01.503Z,1011.23
2017-11-13T07:33:01.495Z,1011.29
2017-11-13T07:34:01.487Z,1011.26
2017-11-13T07:35:01.479Z,1011.30
2017-11-13T07:36:01.472Z,1011.36
2017-11-13T07:37:01.465Z,1011.37
2017-11-13T07:38:01.461Z,1011.41
2017-11-13T07:39:01.457Z,1011.41
2017-11-13T07:40:01.445Z,1011.39
2017-11-13T07:41:01.439Z,1011.40
2017-11-13T07:42:01.430Z,1011.39
2017-11-13T07:43:01.424Z,1011.35
2017-11-13T07:44:01.417Z,1011.33
2017-11-13T07:45:01.410Z,1011.36
2017-11-13T07:46:01.414Z,1011.41
2017-11-13T07:47:01.391Z,1011.41
2017-11-13T07:48:01.385Z,1011.42
2017-11-13T07:49:01.379Z,1011.47
2017-11-13T07:50:01.376Z,1011.45
2017-11-13T07:51:01.368Z,1011.45
2017-11-13T07:52:01.361Z,1011.49
2017-11-13T07:53:01.367Z,1011.49
2017-11-13T07:54:01.344Z,1011.55
2017-11-13T07:55:01.336Z,1011.53
2017-11-13T07:56:01.330Z,1011.56
2017-11-13T07:57:01.323Z,1011.58
2017-11-13T07:58:01.316Z,1011.62
2017-11-13T07:59:01.309Z,1011.67
2017-11-13T08:00:01.302Z,1011.74
2017-11-13T08:01:01.295Z,1011.72
2017-11-13T08:02:01.293Z,1011.71
2017-11-13T08:03:01.285Z,1011.73
2017-11-13T08:04:01.279Z,1011.73
2017-11-13T08:05:01.273Z,1011.73
2017-11-13T08:06:01.268Z,1011.81
2017-11-13T08:07:01.259Z,1011.86
2017-11-13T08:08:01.251Z,1011.79
2017-11-13T08:09:01.246Z,1011.81
2017-11-13T08:10:01.236Z,1011.78
2017-11-13T08:11:01.228Z,1011.76
2017-11-13T08:12:01.221Z,1011.78
2017-11-13T08:13:01.216Z,1011.74
2017-11-13T08:14:01.210Z,1011.75
2017-11-13T08:15:01.237Z,1011.79
2017-11-13T08:16:01.196Z,1011.78
2017-11-13T08:17:01.187Z,1011.87
2017-11-13T08:18:01.186Z,1011.87
2017-11-13T08:19:01.187Z,1011.84
2017-11-13T08:20:01.171Z,1011.90
2017-11-13T08:21:01.166Z,1011.93
2017-11-13T08:22:01.158Z,1012.02
2017-11-13T08:23:01.151Z,1011.98
2017-11-13T08:24:01.147Z,1012.02
2017-11-13T08:25:01.140Z,1012.01
2017-11-13T08:26:01.129Z,1012.00
2017-11-13T08:27:01.122Z,1012.06
2017-11-13T08:28:01.116Z,1012.02
2017-11-13T08:29:01.111Z,1012.03
2017-11-13T08:30:01.105Z,1012.02
2017-11-13T08:31:01.098Z,1012.09
2017-11-13T08:32:01.093Z,1012.14
2017-11-13T08:33:01.114Z,1012.06
2017-11-13T08:34:01.093Z,1012.10
2017-11-13T08:35:01.082Z,1012.14
2017-11-13T08:36:01.077Z,1012.11
2017-11-13T08:37:01.086Z,1012.19
2017-11-13T08:38:01.068Z,1012.27
2017-11-13T08:39:01.063Z,1012.30
2017-11-13T08:40:01.059Z,1012.35
2017-11-13T08:41:01.053Z,1012.36
2017-11-13T08:42:01.047Z,1012.43
2017-11-13T08:43:01.041Z,1012.43
2017-11-13T08:44:01.042Z,1012.36
2017-11-13T08:45:01.035Z,1012.43
2017-11-13T08:46:01.033Z,1012.42
2017-11-13T08:47:01.030Z,1012.49
2017-11-13T08:48:01.027Z,1012.48
2017-11-13T08:49:01.025Z,1012.48
2017-11-13T08:50:01.039Z,1012.55
2017-11-13T08:51:01.026Z,1012.58
2017-11-13T08:52:01.027Z,1012.60
2017-11-13T08:53:01.024Z,1012.58
2017-11-13T08:54:01.020Z,1012.51
2017-11-13T08:55:01.021Z,1012.46
2017-11-13T08:56:01.018Z,1012.55
2017-11-13T08:57:01.019Z,1012.57
2017-11-13T08:58:01.022Z,1012.60
2017-11-13T08:59:01.023Z,1012.63
2017-11-13T09:00:01.023Z,1012.61
2017-11-13T09:01:01.022Z,1012.70
2017-11-13T09:02:01.029Z,1012.69
2017-11-13T09:03:01.025Z,1012.73
2017-11-13T09:04:01.026Z,1012.71
2017-11-13T09:05:01.026Z,1012.64
2017-11-13T09:06:01.025Z,1012.72
2017-11-13T09:07:01.025Z,1012.74
2017-11-13T09:08:01.026Z,1012.80
2017-11-13T09:09:01.030Z,1012.87
2017-11-13T09:10:01.031Z,1012.90
2017-11-13T09:11:01.034Z,1012.89
2017-11-13T09:12:01.036Z,1012.92
2017-11-13T09:13:01.041Z,1012.89
2017-11-13T09:14:01.052Z,1012.89
2017-11-13T09:15:01.047Z,1012.91
2017-11-13T09:16:01.050Z,1012.97
2017-11-13T09:17:01.056Z,1012.95
2017-11-13T09:18:01.059Z,1012.91
2017-11-13T09:19:01.062Z,1012.90
2017-11-13T09:20:01.063Z,1012.89
2017-11-13T09:21:01.070Z,1012.90
2017-11-13T09:22:01.067Z,1012.91
2017-11-13T09:23:01.070Z,1012.93
2017-11-13T09:24:01.076Z,1012.96
2017-11-13T09:25:01.078Z,1012.97
2017-11-13T09:26:01.085Z,1013.04
2017-11-13T09:27:01.087Z,1013.04
2017-11-13T09:28:01.092Z,1013.06
2017-11-13T09:29:01.098Z,1013.04
2017-11-13T09:30:01.107Z,1013.08
2017-11-13T09:31:01.108Z,1013.08
2017-11-13T09:32:01.114Z,1013.04
2017-11-13T09:33:01.117Z,1013.04
2017-11-13T09:34:01.122Z,1013.13
2017-11-13T09:35:01.135Z,1013.12
2017-11-13T09:36:01.131Z,1013.12
2017-11-13T09:37:01.138Z,1013.15
2017-11-13T09:38:01.137Z,1013.24
2017-11-13T09:39:01.142Z,1013.24
2017-11-13T09:40:01.181Z,1013.25
2017-11-13T09:41:01.162Z,1013.20
2017-11-13T09:42:01.174Z,1013.23
2017-11-13T09:43:01.395Z,1013.26
2017-11-13T09:44:01.191Z,1013.21
2017-11-13T09:45:01.192Z,1013.18
2017-11-13T09:46:01.195Z,1013.34
2017-11-13T09:47:01.194Z,1013.22
2017-11-13T09:48:01.204Z,1013.24
2017-11-13T09:49:01.205Z,1013.27
2017-11-13T09:50:01.215Z,1013.26
2017-11-13T09:51:01.219Z,1013.31
2017-11-13T09:52:01.225Z,1013.29
2017-11-13T09:53:01.246Z,1013.34
2017-11-13T09:54:01.231Z,1013.32
2017-11-13T09:55:01.230Z,1013.29
2017-11-13T09:56:01.242Z,1013.27
2017-11-13T09:57:01.247Z,1013.32
2017-11-13T09:58:01.256Z,1013.35
2017-11-13T09:59:01.260Z,1013.29
2017-11-13T10:00:01.265Z,1013.34
2017-11-13T10:01:01.265Z,1013.36
2017-11-13T10:02:01.270Z,1013.38
2017-11-13T10:03:01.282Z,1013.37
2017-11-13T10:04:01.281Z,1013.43
2017-11-13T10:05:01.287Z,1013.44
2017-11-13T10:06:01.291Z,1013.45
2017-11-13T10:07:01.291Z,1013.46
2017-11-13T10:08:01.300Z,1013.45
2017-11-13T10:09:01.308Z,1013.47
2017-11-13T10:10:01.316Z,1013.50
2017-11-13T10:11:01.317Z,1013.48
2017-11-13T10:12:01.327Z,1013.47
2017-11-13T10:13:01.334Z,1013.45
2017-11-13T10:14:01.334Z,1013.40
2017-11-13T10:15:01.345Z,1013.42
2017-11-13T10:16:01.351Z,1013.44
2017-11-13T10:17:01.357Z,1013.39
2017-11-13T10:18:01.354Z,1013.50
2017-11-13T10:19:01.359Z,1013.51
2017-11-13T10:20:01.385Z,1013.47
2017-11-13T10:21:01.382Z,1013.52
2017-11-13T10:22:01.383Z,1013.49
2017-11-13T10:23:01.388Z,1013.44
2017-11-13T10:24:01.388Z,1013.43
2017-11-13T10:25:01.414Z,1013.48
2017-11-13T10:26:01.414Z,1013.42
2017-11-13T10:27:01.410Z,1013.43
2017-11-13T10:28:01.423Z,1013.49
2017-11-13T10:29:01.430Z,1013.51
2017-11-13T10:30:01.460Z,1013.56
2017-11-13T10:31:01.444Z,1013.56
2017-11-13T10:32:01.445Z,1013.60
2017-11-13T10:33:01.453Z,1013.61
2017-11-13T10:34:01.482Z,1013.61
2017-11-13T10:35:01.460Z,1013.63
2017-11-13T10:36:01.479Z,1013.61
2017-11-13T10:37:01.467Z,1013.60
2017-11-13T10:38:01.477Z,1013.67
2017-11-13T10:39:01.509Z,1013.56
2017-11-13T10:40:01.536Z,1013.58
2017-11-13T10:41:01.523Z,1013.54
2017-11-13T10:42:01.507Z,1013.59
2017-11-13T10:43:01.511Z,1013.61
2017-11-13T10:44:01.517Z,1013.68
2017-11-13T10:45:01.523Z,1013.66
2017-11-13T10:46:01.523Z,1013.66
2017-11-13T10:47:01.533Z,1013.61
2017-11-13T10:48:01.540Z,1013.56
2017-11-13T10:49:01.545Z,1013.68
2017-11-13T10:50:01.547Z,1013.64
2017-11-13T10:51:01.552Z,1013.65
2017-11-13T10:52:01.558Z,1013.68
2017-11-13T10:53:01.558Z,1013.66
2017-11-13T10:54:01.566Z,1013.68
2017-11-13T10:55:01.573Z,1013.59
2017-11-13T10:56:01.573Z,1013.63
2017-11-13T10:57:01.583Z,1013.66
2017-11-13T10:58:01.594Z,1013.70
2017-11-13T10:59:01.606Z,1013.68
2017-11-13T11:00:01.604Z,1013.59
2017-11-13T11:01:01.609Z,1013.60
2017-11-13T11:02:01.607Z,1013.58
2017-11-13T11:03:01.616Z,1013.59
2017-11-13T11:04:01.635Z,1013.65
2017-11-13T11:05:01.626Z,1013.72
2017-11-13T11:06:01.626Z,1013.70
2017-11-13T11:07:01.628Z,1013.67
2017-11-13T11:08:01.631Z,1013.60
2017-11-13T11:09:01.637Z,1013.58
2017-11-13T11:10:01.638Z,1013.62
2017-11-13T11:11:01.646Z,1013.69
2017-11-13T11:12:01.646Z,1013.68
2017-11-13T11:13:01.660Z,1013.66
2017-11-13T11:14:01.672Z,1013.65
2017-11-13T11:15:01.654Z,1013.65
2017-11-13T11:16:01.657Z,1013.69
2017-11-13T11:17:01.660Z,1013.68
2017-11-13T11:18:01.661Z,1013.67
2017-11-13T11:19:01.664Z,1013.69
2017-11-13T11:20:01.666Z,1013.68
2017-11-13T11:21:01.664Z,1013.66
2017-11-13T11:22:01.662Z,1013.70
2017-11-13T11:23:01.673Z,1013.68
2017-11-13T11:24:01.662Z,1013.68
2017-11-13T11:25:01.668Z,1013.68
2017-11-13T11:26:01.662Z,1013.69
2017-11-13T11:27:01.663Z,1013.65
2017-11-13T11:28:01.662Z,1013.66
2017-11-13T11:29:01.665Z,1013.65
2017-11-13T11:30:01.667Z,1013.69
2017-11-13T11:31:01.669Z,1013.74
2017-11-13T11:32:01.667Z,1013.66
2017-11-13T11:33:01.680Z,1013.58
2017-11-13T11:34:01.671Z,1013.71
2017-11-13T11:35:01.665Z,1013.63
2017-11-13T11:36:01.663Z,1013.67
2017-11-13T11:37:01.664Z,1013.61
2017-11-13T11:38:01.659Z,1013.63
2017-11-13T11:39:01.656Z,1013.67
2017-11-13T11:40:01.655Z,1013.66
2017-11-13T11:41:01.654Z,1013.67
2017-11-13T11:42:01.654Z,1013.63
2017-11-13T11:43:01.652Z,1013.60
2017-11-13T11:44:01.650Z,1013.64
2017-11-13T11:45:01.649Z,1013.61
2017-11-13T11:46:01.652Z,1013.66
2017-11-13T11:47:01.650Z,1013.64
2017-11-13T11:48:01.650Z,1013.67
2017-11-13T11:49:01.646Z,1013.68
2017-11-13T11:50:01.645Z,1013.73
2017-11-13T11:51:01.642Z,1013.74
2017-11-13T11:52:01.641Z,1013.77
2017-11-13T11:53:01.640Z,1013.75
2017-11-13T11:54:01.632Z,1013.77
2017-11-13T11:55:01.630Z,1013.72
2017-11-13T11:56:01.627Z,1013.72
2017-11-13T11:57:01.626Z,1013.74
2017-11-13T11:58:01.628Z,1013.74
2017-11-13T11:59:01.621Z,1013.72
2017-11-13T12:00:01.621Z,1013.69
2017-11-13T12:01:01.616Z,1013.70
2017-11-13T12:02:01.619Z,1013.75
2017-11-13T12:03:01.615Z,1013.78
2017-11-13T12:04:01.613Z,1013.76
2017-11-13T12:05:01.609Z,1013.83